Time,TemperatureF,DewpointF,PressureIn,WindDirection,WindDirectionDegrees,WindSpeedMPH,WindSpeedGustMPH,Humidity,HourlyPrecipIn,Conditions,Clouds,dailyrainin,SoftwareType,DateUTC
2013-10-04 02:00:00,39.0,26.0,-100.00,NW,304,2.0,2.0,59,-99.99,,,-99.99,,2013-10-04 08:00:00,
2013-10-04 02:57:00,39.0,26.0,-100.00,NW,304,2.0,2.0,59,-99.99,,,-99.99,,2013-10-04 08:57:00,
2013-10-04 05:00:00,36.0,28.0,-100.00,NW,322,2.0,2.0,71,-99.99,,,-99.99,,2013-10-04 11:00:00,
2013-10-04 05:59:00,36.0,28.0,-100.00,NW,322,2.0,2.0,71,-99.99,,,-99.99,,2013-10-04 11:59:00,
2013-10-04 08:00:00,34.0,31.0,-100.00,NW,311,0.0,2.0,87,-99.99,,,-99.99,,2013-10-04 14:00:00,
2013-10-04 08:59:00,34.0,31.0,-100.00,NW,311,0.0,2.0,87,-99.99,,,-99.99,,2013-10-04 14:59:00,
2013-10-04 13:00:00,45.0,33.0,-100.00,ESE,111,4.0,4.0,63,-99.99,,,-99.99,,2013-10-04 19:00:00,
2013-10-04 13:52:00,45.0,33.0,-100.00,ESE,111,4.0,4.0,63,-99.99,,,-99.99,,2013-10-04 19:52:00,
2013-10-04 14:00:00,47.0,31.0,-100.00,ESE,114,4.0,4.0,54,-99.99,,,-99.99,,2013-10-04 20:00:00,
2013-10-04 14:53:00,47.0,31.0,-100.00,ESE,114,4.0,4.0,54,-99.99,,,-99.99,,2013-10-04 20:53:00,
2013-10-04 16:00:00,48.0,28.0,-100.00,SE,127,4.0,4.0,45,-99.99,,,-99.99,,2013-10-04 22:00:00,
2013-10-04 16:52:00,48.0,28.0,-100.00,SE,127,4.0,4.0,45,-99.99,,,-99.99,,2013-10-04 22:52:00,
2013-10-04 17:00:00,48.0,27.0,-100.00,SE,125,4.0,4.0,44,-99.99,,,-99.99,,2013-10-04 23:00:00,
2013-10-04 17:53:00,48.0,27.0,-100.00,SE,125,4.0,4.0,44,-99.99,,,-99.99,,2013-10-04 23:53:00,
2013-10-04 19:00:00,48.0,25.0,-100.00,South,182,2.0,2.0,40,-99.99,,,-99.99,,2013-10-05 01:00:00,
2013-10-04 19:52:00,48.0,25.0,-100.00,South,182,2.0,2.0,40,-99.99,,,-99.99,,2013-10-05 01:52:00,
2013-10-04 21:00:00,46.0,25.0,-100.00,WSW,238,2.0,2.0,44,-99.99,,,-99.99,,2013-10-05 03:00:00,
2013-10-04 21:55:00,46.0,25.0,-100.00,WSW,238,2.0,2.0,44,-99.99,,,-99.99,,2013-10-05 03:55:00,
2013-10-04 22:00:00,45.0,23.0,-100.00,WSW,257,2.0,2.0,42,-99.99,,,-99.99,,2013-10-05 04:00:00,
2013-10-04 22:53:00,45.0,23.0,-100.00,WSW,257,2.0,2.0,42,-99.99,,,-99.99,,2013-10-05 04:53:00,